createdAt,value
2023-03-31T00:02:13.499Z,10.25
2023-03-31T00:04:46.483Z,8.63
2023-03-31T00:07:22.196Z,9.95
2023-03-31T00:10:03.614Z,10.25
2023-03-31T00:12:37.189Z,9.80
2023-03-31T00:15:07.371Z,9.73
2023-03-31T00:17:36.741Z,11.70
2023-03-31T00:20:09.133Z,10.25
2023-03-31T00:22:42.469Z,8.70
2023-03-31T00:25:11.882Z,10.48
2023-03-31T00:27:44.278Z,10.45
2023-03-31T00:30:15.746Z,10.70
2023-03-31T00:32:44.809Z,12.35
2023-03-31T00:35:14.073Z,11.30
2023-03-31T00:37:46.046Z,11.93
2023-03-31T00:40:15.357Z,13.55
2023-03-31T00:42:46.501Z,12.55
2023-03-31T00:45:29.167Z,14.82
2023-03-31T00:48:10.522Z,17.80
2023-03-31T00:50:51.432Z,14.90
2023-03-31T00:53:26.340Z,14.93
2023-03-31T00:56:00.370Z,17.15
2023-03-31T00:58:29.342Z,16.05
2023-03-31T01:01:00.202Z,17.92
2023-03-31T01:03:30.687Z,17.08
2023-03-31T01:06:03.857Z,16.45
2023-03-31T01:08:36.714Z,17.73
2023-03-31T01:11:10.130Z,16.55
2023-03-31T01:13:41.688Z,17.92
2023-03-31T01:16:11.546Z,17.63
2023-03-31T01:18:40.931Z,15.70
2023-03-31T01:21:45.651Z,15.43
2023-03-31T01:24:50.033Z,14.45
2023-03-31T01:27:44.409Z,14.32
2023-03-31T01:31:04.728Z,13.48
2023-03-31T01:34:10.498Z,14.77
2023-03-31T01:37:19.141Z,12.13
2023-03-31T01:40:25.831Z,14.02
2023-03-31T01:43:00.432Z,15.00
2023-03-31T01:45:40.992Z,15.52
2023-03-31T01:48:14.846Z,14.38
2023-03-31T01:50:48.405Z,14.50
2023-03-31T01:53:25.365Z,14.43
2023-03-31T01:56:03.613Z,12.60
2023-03-31T01:58:37.080Z,12.48
2023-03-31T02:01:13.943Z,11.98
2023-03-31T02:03:51.217Z,12.85
2023-03-31T02:06:25.148Z,10.75
2023-03-31T02:08:59.748Z,9.48
2023-03-31T02:11:33.687Z,9.25
2023-03-31T02:14:06.013Z,9.45
2023-03-31T02:16:42.079Z,8.68
2023-03-31T02:19:14.156Z,7.88
2023-03-31T02:21:43.960Z,7.93
2023-03-31T02:24:16.170Z,7.90
2023-03-31T02:26:56.550Z,7.60
2023-03-31T02:29:26.395Z,7.57
2023-03-31T02:32:02.486Z,7.03
2023-03-31T02:34:32.252Z,6.72
2023-03-31T02:37:01.507Z,6.47
2023-03-31T02:39:34.707Z,8.25
2023-03-31T02:42:08.156Z,6.88
2023-03-31T02:44:38.285Z,6.25
2023-03-31T02:47:20.627Z,7.90
2023-03-31T02:49:52.773Z,6.82
2023-03-31T02:52:47.903Z,7.40
2023-03-31T02:55:37.809Z,8.45
2023-03-31T02:58:43.614Z,7.05
2023-03-31T03:01:45.179Z,7.70
2023-03-31T03:04:35.334Z,7.80
2023-03-31T03:07:13.122Z,6.63
2023-03-31T03:09:53.557Z,6.70
2023-03-31T03:12:26.956Z,5.60
2023-03-31T03:15:03.840Z,5.72
2023-03-31T03:17:39.456Z,6.15
2023-03-31T03:20:10.728Z,6.30
2023-03-31T03:22:41.250Z,5.85
2023-03-31T03:25:13.043Z,6.15
2023-03-31T03:27:42.292Z,5.97
2023-03-31T03:30:15.456Z,6.13
2023-03-31T03:32:44.552Z,5.03
2023-03-31T03:35:13.598Z,6.07
2023-03-31T03:37:43.115Z,5.53
2023-03-31T03:40:12.852Z,5.32
2023-03-31T03:42:41.935Z,6.10
2023-03-31T03:45:15.085Z,5.05
2023-03-31T03:47:44.359Z,5.50
2023-03-31T03:50:16.196Z,6.50
2023-03-31T03:52:45.900Z,6.60
2023-03-31T03:55:20.113Z,5.38
2023-03-31T03:57:49.337Z,5.30
2023-03-31T04:00:20.381Z,5.63
2023-03-31T04:02:49.446Z,5.93
2023-03-31T04:05:19.244Z,5.43
2023-03-31T04:07:51.207Z,5.57
2023-03-31T04:10:20.749Z,5.00
2023-03-31T04:12:49.887Z,4.82
2023-03-31T04:15:20.750Z,6.45
2023-03-31T04:17:51.119Z,4.90
2023-03-31T04:20:21.599Z,4.72
2023-03-31T04:22:50.782Z,3.78
2023-03-31T04:25:19.942Z,4.68
2023-03-31T04:27:54.946Z,4.63
2023-03-31T04:30:31.103Z,5.28
2023-03-31T04:33:04.361Z,4.63
2023-03-31T04:35:49.825Z,5.05
2023-03-31T04:38:19.914Z,4.57
2023-03-31T04:40:54.606Z,5.32
2023-03-31T04:43:24.123Z,3.85
2023-03-31T04:45:57.205Z,4.43
2023-03-31T04:48:27.533Z,4.50
2023-03-31T04:50:56.751Z,3.65
2023-03-31T04:53:26.220Z,4.50
2023-03-31T04:55:57.574Z,4.18
2023-03-31T04:58:28.912Z,3.55
2023-03-31T05:00:59.208Z,3.88
2023-03-31T05:03:36.649Z,4.13
2023-03-31T05:06:06.601Z,3.90
2023-03-31T05:08:35.781Z,15.57
2023-03-31T05:11:06.927Z,13.82
2023-03-31T05:13:36.093Z,11.20
2023-03-31T05:16:12.420Z,7.93
2023-03-31T05:18:41.851Z,4.47
2023-03-31T05:21:16.106Z,5.40
2023-03-31T05:23:47.693Z,5.82
2023-03-31T05:26:18.039Z,4.78
2023-03-31T05:28:47.650Z,5.25
2023-03-31T05:31:19.571Z,4.57
2023-03-31T05:33:52.072Z,5.10
2023-03-31T05:36:24.319Z,4.70
2023-03-31T05:38:55.720Z,4.82
2023-03-31T05:41:28.158Z,5.38
2023-03-31T05:43:57.563Z,5.80
2023-03-31T05:46:28.337Z,7.68
2023-03-31T05:48:58.870Z,5.55
2023-03-31T05:51:28.906Z,4.97
2023-03-31T05:53:58.556Z,5.38
2023-03-31T05:56:27.884Z,5.50
2023-03-31T05:59:05.240Z,6.55
2023-03-31T06:01:40.589Z,4.90
2023-03-31T06:04:09.799Z,4.80
2023-03-31T06:06:39.684Z,5.03
2023-03-31T06:09:09.222Z,4.65
2023-03-31T06:11:41.309Z,4.90
2023-03-31T06:14:10.884Z,4.47
2023-03-31T06:16:41.568Z,5.18
2023-03-31T06:19:11.076Z,4.60
2023-03-31T06:21:40.053Z,4.55
2023-03-31T06:24:14.670Z,5.22
2023-03-31T06:26:43.820Z,4.85
2023-03-31T06:29:13.335Z,6.15
2023-03-31T06:31:46.430Z,4.88
2023-03-31T06:34:17.306Z,5.32
2023-03-31T06:36:48.981Z,5.47
2023-03-31T06:39:18.569Z,4.75
2023-03-31T06:41:50.592Z,5.18
2023-03-31T06:44:30.033Z,6.13
2023-03-31T06:47:00.870Z,6.63
2023-03-31T06:49:30.552Z,5.47
2023-03-31T06:52:00.494Z,7.00
2023-03-31T06:54:30.200Z,4.90
2023-03-31T06:57:00.930Z,5.25
2023-03-31T06:59:30.735Z,5.43
2023-03-31T07:02:01.240Z,5.15
2023-03-31T07:04:30.713Z,5.32
2023-03-31T07:07:00.335Z,5.00
2023-03-31T07:09:29.717Z,5.18
2023-03-31T07:11:59.123Z,5.32
2023-03-31T07:14:28.600Z,5.03
2023-03-31T07:16:58.030Z,4.82
2023-03-31T07:19:28.568Z,5.13
2023-03-31T07:22:00.037Z,5.18
2023-03-31T07:24:30.530Z,4.78
2023-03-31T07:27:00.838Z,4.93
2023-03-31T07:29:29.936Z,6.25
2023-03-31T07:31:59.416Z,5.90
2023-03-31T07:34:34.986Z,5.32
2023-03-31T07:37:06.322Z,5.35
2023-03-31T07:39:40.649Z,5.45
2023-03-31T07:42:10.035Z,5.47
2023-03-31T07:44:39.854Z,5.78
2023-03-31T07:47:08.820Z,5.72
2023-03-31T07:49:41.181Z,5.00
2023-03-31T07:52:10.587Z,5.55
2023-03-31T07:54:40.087Z,6.00
2023-03-31T07:57:10.322Z,5.55
2023-03-31T07:59:39.809Z,5.00
2023-03-31T08:02:09.066Z,5.78
2023-03-31T08:04:42.224Z,5.82
2023-03-31T08:07:20.858Z,5.75
2023-03-31T08:09:51.367Z,5.30
2023-03-31T08:12:20.545Z,5.88
2023-03-31T08:14:49.437Z,5.38
2023-03-31T08:17:18.829Z,5.35
2023-03-31T08:19:50.310Z,5.38
2023-03-31T08:22:19.877Z,5.13
2023-03-31T08:24:49.211Z,5.35
2023-03-31T08:27:18.812Z,5.50
2023-03-31T08:29:48.406Z,9.23
2023-03-31T08:32:17.453Z,5.75
2023-03-31T08:34:46.632Z,5.43
2023-03-31T08:37:17.331Z,5.47
2023-03-31T08:39:46.759Z,5.63
2023-03-31T08:42:23.318Z,4.55
2023-03-31T08:44:59.746Z,4.70
2023-03-31T08:47:33.095Z,4.43
2023-03-31T08:50:08.024Z,5.28
2023-03-31T08:52:44.198Z,5.05
2023-03-31T08:55:19.367Z,4.30
2023-03-31T08:57:57.045Z,5.05
2023-03-31T09:00:27.353Z,4.85
2023-03-31T09:03:03.698Z,4.40
2023-03-31T09:05:59.560Z,4.53
2023-03-31T09:08:39.709Z,5.00
2023-03-31T09:11:16.558Z,5.13
2023-03-31T09:14:12.128Z,4.75
2023-03-31T09:16:49.635Z,4.55
2023-03-31T09:19:22.460Z,4.63
2023-03-31T09:21:55.563Z,5.03
2023-03-31T09:24:33.092Z,5.00
2023-03-31T09:27:07.435Z,4.25
2023-03-31T09:29:43.654Z,4.03
2023-03-31T09:32:17.574Z,4.13
2023-03-31T09:34:48.429Z,3.72
2023-03-31T09:37:18.034Z,3.97
2023-03-31T09:39:48.791Z,4.28
2023-03-31T09:42:19.363Z,4.18
2023-03-31T09:44:51.342Z,3.83
2023-03-31T09:47:28.115Z,3.90
2023-03-31T09:49:58.635Z,4.75
2023-03-31T09:52:32.884Z,4.50
2023-03-31T09:55:38.407Z,3.70
2023-03-31T09:58:16.878Z,4.40
2023-03-31T10:00:59.696Z,3.28
2023-03-31T10:03:37.052Z,4.18
2023-03-31T10:06:11.867Z,3.90
2023-03-31T10:08:43.986Z,4.47
2023-03-31T10:11:15.706Z,4.28
2023-03-31T10:13:50.852Z,4.18
2023-03-31T10:16:25.185Z,3.88
2023-03-31T10:19:13.950Z,4.07
2023-03-31T10:21:48.887Z,4.28
2023-03-31T10:24:21.882Z,4.22
2023-03-31T10:26:56.662Z,4.20
2023-03-31T10:29:34.023Z,3.33
2023-03-31T10:32:10.264Z,4.07
2023-03-31T10:34:46.460Z,3.90
2023-03-31T10:37:20.739Z,4.28
2023-03-31T10:40:04.104Z,4.45
2023-03-31T10:42:40.324Z,3.40
2023-03-31T10:45:20.580Z,3.35
2023-03-31T10:48:02.067Z,4.03
2023-03-31T10:50:34.740Z,3.50
2023-03-31T10:53:06.698Z,3.65
2023-03-31T10:55:41.131Z,4.20
2023-03-31T10:58:38.932Z,4.28
2023-03-31T11:01:22.803Z,3.53
2023-03-31T11:06:59.828Z,4.28
2023-03-31T11:09:52.039Z,3.72
2023-03-31T11:12:31.308Z,4.30
2023-03-31T11:15:13.443Z,3.28
2023-03-31T11:18:00.664Z,3.42
2023-03-31T11:20:37.508Z,3.92
2023-03-31T11:23:22.454Z,3.95
2023-03-31T11:26:05.484Z,3.40
2023-03-31T11:28:51.501Z,3.85
2023-03-31T11:31:34.410Z,3.80
2023-03-31T11:34:37.044Z,3.37
2023-03-31T11:37:21.517Z,4.38
2023-03-31T11:44:06.064Z,4.15
2023-03-31T11:46:42.658Z,4.20
2023-03-31T11:49:21.566Z,3.67
2023-03-31T11:52:06.497Z,3.58
2023-03-31T11:54:38.890Z,3.67
2023-03-31T11:57:15.610Z,4.47
2023-03-31T11:59:48.750Z,4.30
2023-03-31T12:02:46.172Z,4.53
2023-03-31T12:05:19.209Z,4.45
2023-03-31T12:07:58.153Z,4.47
2023-03-31T12:10:37.889Z,4.47
2023-03-31T12:13:29.581Z,3.95
2023-03-31T12:16:06.030Z,5.22
2023-03-31T12:18:43.353Z,4.88
2023-03-31T12:21:13.427Z,4.15
2023-03-31T12:23:50.897Z,4.10
2023-03-31T12:27:03.446Z,4.50
2023-03-31T12:29:38.762Z,4.18
2023-03-31T12:32:21.671Z,4.65
2023-03-31T12:35:04.099Z,4.78
2023-03-31T12:38:11.897Z,4.88
2023-03-31T12:41:02.862Z,4.32
2023-03-31T12:44:03.844Z,4.00
2023-03-31T12:47:03.814Z,4.00
2023-03-31T12:49:54.167Z,4.28
2023-03-31T12:52:34.625Z,5.15
2023-03-31T12:55:31.024Z,4.25
2023-03-31T12:58:37.403Z,5.38
2023-03-31T13:01:11.310Z,4.30
2023-03-31T13:03:50.622Z,4.20
2023-03-31T13:06:57.568Z,4.65
2023-03-31T13:09:54.206Z,4.07
2023-03-31T13:12:28.327Z,4.28
2023-03-31T13:15:00.636Z,4.00
2023-03-31T13:17:32.904Z,5.57
2023-03-31T13:20:19.357Z,5.35
2023-03-31T13:22:49.458Z,4.55
2023-03-31T13:25:39.904Z,4.03
2023-03-31T13:28:19.947Z,6.35
2023-03-31T13:30:52.357Z,4.47
2023-03-31T13:33:26.643Z,3.47
2023-03-31T13:36:15.556Z,4.22
2023-03-31T13:38:54.449Z,6.50
2023-03-31T13:41:43.373Z,3.75
2023-03-31T13:44:38.315Z,3.00
2023-03-31T13:47:37.212Z,3.75
2023-03-31T13:50:39.800Z,3.28
2023-03-31T13:53:25.136Z,3.67
2023-03-31T13:56:21.910Z,3.28
2023-03-31T13:59:21.254Z,3.53
2023-03-31T14:02:15.867Z,4.32
2023-03-31T14:05:10.507Z,5.28
2023-03-31T14:07:45.633Z,4.05
2023-03-31T14:10:26.489Z,4.70
2023-03-31T14:13:07.285Z,3.55
2023-03-31T14:15:40.453Z,5.15
2023-03-31T14:18:13.970Z,3.10
2023-03-31T14:23:35.750Z,2.92
2023-03-31T14:26:08.997Z,3.58
2023-03-31T14:29:03.848Z,3.33
2023-03-31T14:31:40.624Z,4.53
2023-03-31T14:34:25.042Z,4.00
2023-03-31T14:37:00.953Z,3.38
2023-03-31T14:39:38.317Z,3.17
2023-03-31T14:42:13.733Z,4.03
2023-03-31T14:44:46.341Z,5.28
2023-03-31T14:47:23.155Z,3.70
2023-03-31T14:50:02.288Z,4.10
2023-03-31T14:52:33.734Z,4.00
2023-03-31T14:55:03.262Z,3.88
2023-03-31T14:57:36.308Z,3.80
2023-03-31T15:00:09.173Z,3.63
2023-03-31T15:02:43.700Z,3.40
2023-03-31T15:05:24.913Z,3.78
2023-03-31T15:07:59.037Z,4.32
2023-03-31T15:10:34.678Z,3.60
2023-03-31T15:13:09.123Z,3.60
2023-03-31T15:15:38.957Z,4.20
2023-03-31T15:18:13.219Z,4.28
2023-03-31T15:20:43.727Z,4.40
2023-03-31T15:23:25.060Z,4.97
2023-03-31T15:25:58.488Z,3.63
2023-03-31T15:28:34.420Z,4.47
2023-03-31T15:31:10.209Z,5.05
2023-03-31T15:33:42.525Z,4.28
2023-03-31T15:36:13.755Z,5.03
2023-03-31T15:38:43.750Z,4.22
2023-03-31T15:41:23.414Z,5.05
2023-03-31T15:44:06.788Z,5.03
2023-03-31T15:46:59.280Z,5.22
2023-03-31T15:49:31.408Z,4.70
2023-03-31T15:52:03.380Z,5.50
2023-03-31T15:54:38.521Z,5.30
2023-03-31T15:57:09.948Z,5.70
2023-03-31T15:59:55.571Z,5.05
2023-03-31T16:02:28.921Z,5.63
2023-03-31T16:05:08.063Z,5.47
2023-03-31T16:07:47.429Z,4.93
2023-03-31T16:10:34.930Z,5.38
2023-03-31T16:13:16.405Z,5.53
2023-03-31T16:15:49.566Z,5.28
2023-03-31T16:18:29.191Z,5.85
2023-03-31T16:21:07.083Z,6.25
2023-03-31T16:23:44.550Z,4.85
2023-03-31T16:26:14.471Z,6.57
2023-03-31T16:28:51.678Z,6.20
2023-03-31T16:31:32.596Z,5.35
2023-03-31T16:34:03.700Z,6.18
2023-03-31T16:36:35.655Z,6.78
2023-03-31T16:39:09.170Z,6.03
2023-03-31T16:41:39.391Z,7.47
2023-03-31T16:44:08.918Z,6.72
2023-03-31T16:46:38.081Z,6.93
2023-03-31T16:49:07.528Z,6.43
2023-03-31T16:51:37.969Z,6.80
2023-03-31T16:54:08.065Z,7.40
2023-03-31T16:56:37.395Z,7.65
2023-03-31T16:59:23.525Z,8.38
2023-03-31T17:01:54.684Z,7.53
2023-03-31T17:04:25.420Z,7.70
2023-03-31T17:06:59.125Z,8.18
2023-03-31T17:11:57.700Z,7.07
2023-03-31T17:14:29.225Z,8.25
2023-03-31T17:17:02.259Z,7.50
2023-03-31T17:22:10.865Z,7.20
2023-03-31T17:24:40.705Z,7.65
2023-03-31T17:27:09.862Z,7.90
2023-03-31T17:29:39.571Z,6.93
2023-03-31T17:32:10.227Z,7.72
2023-03-31T17:34:42.753Z,7.55
2023-03-31T17:37:16.919Z,7.05
2023-03-31T17:39:46.789Z,8.32
2023-03-31T17:42:16.811Z,8.32
2023-03-31T17:44:48.500Z,8.68
2023-03-31T17:47:19.062Z,7.35
2023-03-31T17:49:48.151Z,8.32
2023-03-31T17:52:18.930Z,7.93
2023-03-31T17:54:50.306Z,7.57
2023-03-31T17:57:20.744Z,7.63
2023-03-31T17:59:50.606Z,8.48
2023-03-31T18:02:21.009Z,8.27
2023-03-31T18:04:51.422Z,8.40
2023-03-31T18:07:23.515Z,9.02
2023-03-31T18:09:52.988Z,7.35
2023-03-31T18:12:22.083Z,8.38
2023-03-31T18:14:51.909Z,7.07
2023-03-31T18:17:21.232Z,8.07
2023-03-31T18:19:50.802Z,8.60
2023-03-31T18:22:21.635Z,8.07
2023-03-31T18:24:51.595Z,8.27
2023-03-31T18:27:23.180Z,7.82
2023-03-31T18:29:56.805Z,8.52
2023-03-31T18:32:29.058Z,8.82
2023-03-31T18:35:01.158Z,8.48
2023-03-31T18:37:32.022Z,10.13
2023-03-31T18:40:02.699Z,9.27
2023-03-31T18:42:33.392Z,8.57
2023-03-31T18:45:08.921Z,8.63
2023-03-31T18:47:38.563Z,9.25
2023-03-31T18:50:10.766Z,9.07
2023-03-31T18:52:44.563Z,8.38
2023-03-31T18:55:14.769Z,8.02
2023-03-31T18:57:45.576Z,8.65
2023-03-31T19:00:16.748Z,8.27
2023-03-31T19:02:47.053Z,8.95
2023-03-31T19:05:19.239Z,8.48
2023-03-31T19:07:50.181Z,8.27
2023-03-31T19:10:20.865Z,11.77
2023-03-31T19:12:55.162Z,9.15
2023-03-31T19:15:54.404Z,8.25
2023-03-31T19:18:21.971Z,8.82
2023-03-31T19:20:52.040Z,8.45
2023-03-31T19:23:25.981Z,9.43
2023-03-31T19:25:56.066Z,8.48
2023-03-31T19:28:27.585Z,8.93
2023-03-31T19:30:57.915Z,8.77
2023-03-31T19:33:27.764Z,8.82
2023-03-31T19:35:58.025Z,8.77
2023-03-31T19:38:32.084Z,9.55
2023-03-31T19:41:04.093Z,8.68
2023-03-31T19:43:34.258Z,8.90
2023-03-31T19:46:06.210Z,9.52
2023-03-31T19:48:38.160Z,9.80
2023-03-31T19:51:11.475Z,9.05
2023-03-31T19:53:42.282Z,8.52
2023-03-31T19:56:12.908Z,8.82
2023-03-31T19:58:47.188Z,9.48
2023-03-31T20:01:18.503Z,10.65
2023-03-31T20:03:52.729Z,9.40
2023-03-31T20:06:29.290Z,9.75
2023-03-31T20:09:03.526Z,9.20
2023-03-31T20:11:33.554Z,9.07
2023-03-31T20:14:03.337Z,9.20
2023-03-31T20:16:34.764Z,9.43
2023-03-31T20:19:06.444Z,9.45
2023-03-31T20:21:39.075Z,8.85
2023-03-31T20:24:15.744Z,9.38
2023-03-31T20:26:47.809Z,9.40
2023-03-31T20:29:16.917Z,8.27
2023-03-31T20:31:46.201Z,8.23
2023-03-31T20:34:25.085Z,10.38
2023-03-31T20:36:54.234Z,8.48
2023-03-31T20:39:25.087Z,9.38
2023-03-31T20:41:55.285Z,9.52
2023-03-31T20:44:26.354Z,8.93
2023-03-31T20:47:00.620Z,15.23
2023-03-31T20:49:30.521Z,13.43
2023-03-31T20:52:00.437Z,9.50
2023-03-31T20:54:34.649Z,9.60
2023-03-31T20:57:05.900Z,9.02
2023-03-31T20:59:35.315Z,10.02
2023-03-31T21:02:04.790Z,9.80
2023-03-31T21:04:34.293Z,9.63
2023-03-31T21:07:03.677Z,9.65
2023-03-31T21:09:43.464Z,9.40
2023-03-31T21:12:12.893Z,9.00
2023-03-31T21:14:41.870Z,9.65
2023-03-31T21:17:11.021Z,9.88
2023-03-31T21:19:41.985Z,8.30
2023-03-31T21:22:11.345Z,9.35
2023-03-31T21:24:44.853Z,9.73
2023-03-31T21:27:14.014Z,9.63
2023-03-31T21:29:43.717Z,8.88
2023-03-31T21:32:13.530Z,9.85
2023-03-31T21:34:42.931Z,8.70
2023-03-31T21:37:12.314Z,8.75
2023-03-31T21:39:41.541Z,8.88
2023-03-31T21:42:12.466Z,8.70
2023-03-31T21:44:42.488Z,10.13
2023-03-31T21:47:12.399Z,9.15
2023-03-31T21:49:43.357Z,9.18
2023-03-31T21:52:15.607Z,9.45
2023-03-31T21:54:45.801Z,9.57
2023-03-31T21:57:18.965Z,8.48
2023-03-31T21:59:48.171Z,10.25
2023-03-31T22:02:17.472Z,8.77
2023-03-31T22:04:46.975Z,9.48
2023-03-31T22:07:16.732Z,8.77
2023-03-31T22:09:45.961Z,8.13
2023-03-31T22:12:17.693Z,9.35
2023-03-31T22:14:47.122Z,9.63
2023-03-31T22:17:18.560Z,9.57
2023-03-31T22:19:51.440Z,9.30
2023-03-31T22:22:21.068Z,9.00
2023-03-31T22:24:50.467Z,10.15
2023-03-31T22:27:21.076Z,8.57
2023-03-31T22:29:57.959Z,8.80
2023-03-31T22:32:27.279Z,8.93
2023-03-31T22:34:56.429Z,9.15
2023-03-31T22:37:28.077Z,9.23
2023-03-31T22:39:59.741Z,9.27
2023-03-31T22:42:30.407Z,9.73
2023-03-31T22:45:03.013Z,9.88
2023-03-31T22:47:55.685Z,8.38
2023-03-31T22:50:26.179Z,9.90
2023-03-31T22:52:55.746Z,8.68
2023-03-31T22:55:25.391Z,9.25
2023-03-31T22:57:57.115Z,9.38
2023-03-31T23:00:30.734Z,8.95
2023-03-31T23:03:01.459Z,8.93
2023-03-31T23:05:33.404Z,9.27
2023-03-31T23:08:03.080Z,9.88
2023-03-31T23:10:32.279Z,8.85
2023-03-31T23:13:03.836Z,8.88
2023-03-31T23:15:40.979Z,9.68
2023-03-31T23:18:10.624Z,9.48
2023-03-31T23:20:42.837Z,9.70
2023-03-31T23:23:12.129Z,8.88
2023-03-31T23:25:41.175Z,9.23
2023-03-31T23:28:12.070Z,10.40
2023-03-31T23:30:41.367Z,9.80
2023-03-31T23:33:10.681Z,9.25
2023-03-31T23:35:44.133Z,9.45
2023-03-31T23:38:14.379Z,8.68
2023-03-31T23:40:44.821Z,10.23
2023-03-31T23:43:16.583Z,9.27
2023-03-31T23:45:50.435Z,8.00
2023-03-31T23:48:23.367Z,9.10
2023-03-31T23:50:52.482Z,8.90
2023-03-31T23:53:28.787Z,9.90
2023-03-31T23:55:59.958Z,9.25
2023-03-31T23:58:32.698Z,9.60
